createdAt,value
2022-08-31T00:00:59.827Z,85.60
2022-08-31T00:03:46.004Z,85.37
2022-08-31T00:06:13.504Z,85.30
2022-08-31T00:08:41.014Z,85.24
2022-08-31T00:11:13.710Z,85.32
2022-08-31T00:13:42.667Z,85.25
2022-08-31T00:16:12.492Z,85.26
2022-08-31T00:18:40.078Z,85.13
2022-08-31T00:21:07.593Z,85.20
2022-08-31T00:23:35.080Z,84.94
2022-08-31T00:26:02.676Z,84.79
2022-08-31T00:28:30.382Z,84.48
2022-08-31T00:30:58.175Z,84.37
2022-08-31T00:33:25.683Z,84.51
2022-08-31T00:35:53.327Z,84.72
2022-08-31T00:38:22.299Z,84.88
2022-08-31T00:40:49.878Z,85.01
2022-08-31T00:43:47.332Z,85.15
2022-08-31T00:46:21.231Z,85.18
2022-08-31T00:49:23.735Z,85.14
2022-08-31T00:52:06.242Z,85.16
2022-08-31T00:54:41.145Z,85.30
2022-08-31T00:57:10.737Z,85.21
2022-08-31T00:59:42.599Z,85.05
2022-08-31T01:02:11.028Z,84.95
2022-08-31T01:04:39.534Z,84.90
2022-08-31T01:07:09.048Z,84.72
2022-08-31T01:09:45.196Z,84.65
2022-08-31T01:12:25.154Z,84.42
2022-08-31T01:14:55.176Z,84.47
2022-08-31T01:17:23.369Z,84.26
2022-08-31T01:20:25.487Z,84.21
2022-08-31T01:23:09.464Z,83.86
2022-08-31T01:25:41.360Z,83.64
2022-08-31T01:28:10.803Z,83.19
2022-08-31T01:30:40.202Z,83.14
2022-08-31T01:33:13.241Z,83.20
2022-08-31T01:35:45.538Z,83.45
2022-08-31T01:38:13.790Z,83.71
2022-08-31T01:40:55.131Z,84.11
2022-08-31T01:43:24.500Z,83.89
2022-08-31T01:45:53.017Z,83.96
2022-08-31T01:48:23.280Z,83.86
2022-08-31T01:50:51.074Z,84.03
2022-08-31T01:53:19.067Z,84.36
2022-08-31T01:55:46.867Z,84.19
2022-08-31T01:58:15.747Z,84.27
2022-08-31T02:01:03.383Z,84.46
2022-08-31T02:03:43.660Z,84.38
2022-08-31T02:06:13.691Z,84.44
2022-08-31T02:08:41.496Z,84.48
2022-08-31T02:11:09.090Z,84.58
2022-08-31T02:13:37.371Z,84.72
2022-08-31T02:16:06.495Z,84.81
2022-08-31T02:18:36.334Z,84.93
2022-08-31T02:21:04.563Z,85.13
2022-08-31T02:23:32.625Z,85.16
2022-08-31T02:26:00.530Z,85.31
2022-08-31T02:28:28.040Z,85.52
2022-08-31T02:30:55.913Z,85.51
2022-08-31T02:33:27.513Z,85.54
2022-08-31T02:35:58.071Z,85.41
2022-08-31T02:38:28.042Z,85.34
2022-08-31T02:40:56.763Z,85.28
2022-08-31T02:43:24.704Z,85.29
2022-08-31T02:45:55.622Z,85.44
2022-08-31T02:48:28.063Z,85.49
2022-08-31T02:51:06.481Z,85.55
2022-08-31T02:53:34.815Z,86.07
2022-08-31T02:56:04.185Z,86.19
2022-08-31T02:58:34.323Z,86.27
2022-08-31T03:01:02.153Z,86.31
2022-08-31T03:03:33.638Z,86.50
2022-08-31T03:06:02.055Z,86.59
2022-08-31T03:08:31.053Z,86.45
2022-08-31T03:11:01.175Z,86.43
2022-08-31T03:13:29.918Z,86.37
2022-08-31T03:15:57.945Z,86.38
2022-08-31T03:18:25.451Z,86.47
2022-08-31T03:20:52.884Z,86.71
2022-08-31T03:23:20.577Z,86.78
2022-08-31T03:25:48.509Z,86.71
2022-08-31T03:28:17.224Z,86.73
2022-08-31T03:30:59.859Z,86.89
2022-08-31T03:33:28.425Z,86.94
2022-08-31T03:35:56.528Z,86.99
2022-08-31T03:38:24.960Z,87.02
2022-08-31T03:40:52.647Z,87.09
2022-08-31T03:43:21.503Z,87.08
2022-08-31T03:45:49.676Z,87.06
2022-08-31T03:48:18.065Z,87.34
2022-08-31T03:50:46.412Z,87.40
2022-08-31T03:53:23.284Z,87.58
2022-08-31T03:56:01.050Z,87.61
2022-08-31T03:58:32.343Z,87.65
2022-08-31T04:01:01.535Z,87.59
2022-08-31T04:03:47.348Z,87.57
2022-08-31T04:06:42.769Z,87.62
2022-08-31T04:09:29.272Z,87.68
2022-08-31T04:12:28.640Z,87.93
2022-08-31T04:15:19.468Z,87.92
2022-08-31T04:18:06.891Z,87.86
2022-08-31T04:20:53.101Z,87.82
2022-08-31T04:23:20.598Z,88.22
2022-08-31T04:25:51.641Z,88.10
2022-08-31T04:28:19.209Z,88.26
2022-08-31T04:30:48.542Z,88.39
2022-08-31T04:33:17.666Z,88.54
2022-08-31T04:35:46.568Z,88.80
2022-08-31T04:38:14.139Z,88.67
2022-08-31T04:40:44.102Z,88.54
2022-08-31T04:43:13.051Z,88.42
2022-08-31T04:45:45.973Z,88.17
2022-08-31T04:48:14.438Z,87.95
2022-08-31T04:50:43.477Z,87.81
2022-08-31T04:53:11.958Z,87.70
2022-08-31T04:55:41.991Z,87.58
2022-08-31T04:58:13.635Z,87.49
2022-08-31T05:00:44.284Z,87.40
2022-08-31T05:03:11.995Z,87.29
2022-08-31T05:05:40.883Z,87.20
2022-08-31T05:08:09.031Z,86.88
2022-08-31T05:10:36.651Z,86.65
2022-08-31T05:13:04.840Z,86.50
2022-08-31T05:15:33.649Z,86.30
2022-08-31T05:18:01.360Z,85.78
2022-08-31T05:20:32.427Z,85.48
2022-08-31T05:22:59.941Z,84.98
2022-08-31T05:25:27.827Z,85.01
2022-08-31T05:27:55.469Z,84.98
2022-08-31T05:30:24.226Z,84.77
2022-08-31T05:33:04.902Z,84.70
2022-08-31T05:35:35.008Z,84.87
2022-08-31T05:38:02.551Z,84.72
2022-08-31T05:40:31.179Z,84.54
2022-08-31T05:42:59.600Z,84.42
2022-08-31T05:45:27.587Z,84.33
2022-08-31T05:47:55.981Z,84.42
2022-08-31T05:50:23.966Z,84.01
2022-08-31T05:52:51.296Z,83.95
2022-08-31T05:55:19.664Z,83.89
2022-08-31T05:57:48.028Z,83.65
2022-08-31T06:00:16.152Z,83.21
2022-08-31T06:02:54.030Z,82.85
2022-08-31T06:05:22.029Z,82.35
2022-08-31T06:07:52.031Z,81.97
2022-08-31T06:10:20.955Z,81.80
2022-08-31T06:12:49.983Z,81.99
2022-08-31T06:15:18.548Z,81.39
2022-08-31T06:17:46.178Z,81.11
2022-08-31T06:20:17.737Z,80.86
2022-08-31T06:22:47.923Z,80.29
2022-08-31T06:25:28.051Z,79.38
2022-08-31T06:27:56.590Z,78.93
2022-08-31T06:30:27.258Z,78.32
2022-08-31T06:32:58.721Z,77.35
2022-08-31T06:35:32.775Z,77.14
2022-08-31T06:38:15.729Z,77.52
2022-08-31T06:41:30.422Z,75.53
2022-08-31T06:44:24.234Z,75.91
2022-08-31T06:47:08.675Z,74.52
2022-08-31T06:49:39.737Z,73.71
2022-08-31T06:52:07.988Z,73.31
2022-08-31T06:54:37.963Z,72.07
2022-08-31T06:57:24.149Z,72.82
2022-08-31T06:59:53.727Z,71.71
2022-08-31T07:02:39.965Z,71.84
2022-08-31T07:05:11.448Z,72.16
2022-08-31T07:07:41.347Z,72.33
2022-08-31T07:10:10.568Z,70.97
2022-08-31T07:12:38.107Z,70.12
2022-08-31T07:15:06.368Z,70.08
2022-08-31T07:17:34.301Z,68.79
2022-08-31T07:20:04.330Z,68.85
2022-08-31T07:22:32.253Z,70.11
2022-08-31T07:25:15.527Z,68.31
2022-08-31T07:27:44.227Z,67.07
2022-08-31T07:30:12.702Z,67.48
2022-08-31T07:32:40.428Z,64.63
2022-08-31T07:35:09.132Z,62.40
2022-08-31T07:38:13.167Z,61.00
2022-08-31T07:40:59.192Z,61.07
2022-08-31T07:43:27.082Z,58.29
2022-08-31T07:45:55.573Z,57.03
2022-08-31T07:48:27.321Z,59.86
2022-08-31T07:51:23.251Z,59.10
2022-08-31T07:54:11.135Z,55.30
2022-08-31T07:56:50.110Z,54.82
2022-08-31T07:59:23.549Z,55.93
2022-08-31T08:01:56.007Z,57.40
2022-08-31T08:04:25.777Z,54.70
2022-08-31T08:07:12.753Z,53.16
2022-08-31T08:09:55.638Z,53.27
2022-08-31T08:13:04.959Z,51.82
2022-08-31T08:15:56.496Z,55.34
2022-08-31T08:18:56.865Z,54.41
2022-08-31T08:21:29.093Z,55.93
2022-08-31T08:23:57.327Z,53.37
2022-08-31T08:26:54.142Z,53.47
2022-08-31T08:29:45.251Z,54.73
2022-08-31T08:32:18.912Z,52.98
2022-08-31T08:34:46.943Z,52.84
2022-08-31T08:37:15.355Z,53.05
2022-08-31T08:39:43.476Z,53.78
2022-08-31T08:42:16.074Z,51.42
2022-08-31T08:44:44.397Z,53.84
2022-08-31T08:47:20.828Z,52.16
2022-08-31T08:50:03.729Z,51.11
2022-08-31T08:52:42.619Z,50.29
2022-08-31T08:55:38.054Z,49.28
2022-08-31T08:58:10.406Z,50.81
2022-08-31T09:00:51.912Z,50.07
2022-08-31T09:03:42.073Z,50.69
2022-08-31T09:06:31.714Z,47.36
2022-08-31T09:09:18.121Z,48.68
2022-08-31T09:12:14.847Z,47.75
2022-08-31T09:15:07.898Z,49.38
2022-08-31T09:18:33.693Z,47.20
2022-08-31T09:21:25.508Z,47.35
2022-08-31T09:24:12.853Z,46.10
2022-08-31T09:27:19.248Z,45.65
2022-08-31T09:30:01.798Z,45.60
2022-08-31T09:32:34.881Z,46.10
2022-08-31T09:35:10.088Z,43.92
2022-08-31T09:37:46.181Z,43.69
2022-08-31T09:40:23.920Z,46.37
2022-08-31T09:43:13.078Z,45.49
2022-08-31T09:46:04.320Z,44.59
2022-08-31T09:48:52.408Z,43.07
2022-08-31T09:51:28.212Z,42.26
2022-08-31T09:54:24.043Z,40.16
2022-08-31T09:56:57.200Z,41.61
2022-08-31T09:59:47.952Z,39.41
2022-08-31T10:02:22.801Z,41.70
2022-08-31T10:04:58.310Z,42.62
2022-08-31T10:08:20.449Z,44.62
2022-08-31T10:10:51.444Z,46.32
2022-08-31T10:13:37.072Z,48.19
2022-08-31T10:16:26.508Z,49.15
2022-08-31T10:19:11.947Z,50.87
2022-08-31T10:21:52.314Z,52.63
2022-08-31T10:24:38.998Z,54.22
2022-08-31T10:27:15.418Z,55.84
2022-08-31T10:30:00.862Z,58.31
2022-08-31T10:32:50.274Z,60.96
2022-08-31T10:35:27.087Z,62.00
2022-08-31T10:38:24.167Z,64.98
2022-08-31T10:41:01.387Z,66.55
2022-08-31T10:43:42.037Z,68.92
2022-08-31T10:46:09.664Z,69.80
2022-08-31T10:48:50.939Z,70.96
2022-08-31T10:51:20.409Z,69.16
2022-08-31T10:54:09.109Z,69.23
2022-08-31T10:57:18.764Z,70.72
2022-08-31T11:00:39.622Z,72.32
2022-08-31T11:03:13.257Z,72.60
2022-08-31T11:06:15.746Z,72.16
2022-08-31T11:09:13.034Z,70.92
2022-08-31T11:11:57.473Z,71.19
2022-08-31T11:14:34.079Z,71.07
2022-08-31T11:17:20.103Z,70.53
2022-08-31T11:20:19.843Z,69.70
2022-08-31T11:23:14.530Z,68.18
2022-08-31T11:25:58.316Z,68.38
2022-08-31T11:29:13.279Z,69.14
2022-08-31T11:31:42.327Z,69.88
2022-08-31T11:34:17.351Z,70.24
2022-08-31T11:37:01.146Z,69.55
2022-08-31T11:39:35.945Z,69.27
2022-08-31T11:42:27.346Z,66.25
2022-08-31T11:45:27.183Z,60.89
2022-08-31T11:47:55.708Z,60.74
2022-08-31T11:50:23.105Z,60.38
2022-08-31T11:52:53.648Z,61.97
2022-08-31T11:55:30.998Z,62.60
2022-08-31T11:58:07.263Z,59.46
2022-08-31T12:00:52.495Z,53.77
2022-08-31T12:03:52.520Z,52.54
2022-08-31T12:06:28.043Z,50.17
2022-08-31T12:09:44.595Z,47.46
2022-08-31T12:12:27.833Z,49.74
2022-08-31T12:15:23.493Z,50.68
2022-08-31T12:18:30.848Z,52.41
2022-08-31T12:21:40.039Z,53.49
2022-08-31T12:24:08.578Z,54.98
2022-08-31T12:27:15.224Z,57.32
2022-08-31T12:29:43.433Z,56.74
2022-08-31T12:32:22.877Z,58.17
2022-08-31T12:34:56.354Z,57.62
2022-08-31T12:37:33.327Z,58.16
2022-08-31T12:40:07.537Z,57.76
2022-08-31T12:42:43.730Z,57.69
2022-08-31T12:45:15.127Z,56.41
2022-08-31T12:48:15.782Z,55.86
2022-08-31T12:50:59.343Z,56.00
2022-08-31T12:53:38.550Z,57.09
2022-08-31T12:56:19.746Z,57.62
2022-08-31T12:59:57.400Z,56.95
2022-08-31T13:02:23.310Z,56.43
2022-08-31T13:04:51.545Z,57.00
2022-08-31T13:07:28.662Z,55.61
2022-08-31T13:10:03.840Z,58.40
2022-08-31T13:12:31.406Z,56.30
2022-08-31T13:14:58.907Z,57.39
2022-08-31T13:17:27.327Z,56.47
2022-08-31T13:20:00.686Z,55.77
2022-08-31T13:22:42.669Z,55.78
2022-08-31T13:25:35.993Z,56.34
2022-08-31T13:28:14.220Z,55.78
2022-08-31T13:30:55.076Z,55.66
2022-08-31T13:33:34.945Z,56.82
2022-08-31T13:36:11.512Z,56.92
2022-08-31T13:38:53.300Z,57.28
2022-08-31T13:41:37.453Z,56.31
2022-08-31T13:44:13.019Z,56.78
2022-08-31T13:47:00.203Z,55.05
2022-08-31T13:49:38.248Z,54.37
2022-08-31T13:52:18.904Z,54.30
2022-08-31T13:55:06.066Z,54.10
2022-08-31T13:57:38.303Z,54.25
2022-08-31T14:00:37.002Z,54.53
2022-08-31T14:03:58.876Z,55.52
2022-08-31T14:06:34.712Z,55.35
2022-08-31T14:09:17.180Z,54.87
2022-08-31T14:12:05.338Z,54.15
2022-08-31T14:14:43.399Z,55.27
2022-08-31T14:17:16.143Z,54.60
2022-08-31T14:19:46.319Z,54.78
2022-08-31T14:22:30.522Z,56.13
2022-08-31T14:25:00.533Z,56.13
2022-08-31T14:27:29.928Z,55.86
2022-08-31T14:29:58.436Z,55.51
2022-08-31T14:32:27.541Z,55.67
2022-08-31T14:34:55.043Z,55.69
2022-08-31T14:37:23.830Z,56.17
2022-08-31T14:39:55.198Z,56.61
2022-08-31T14:42:30.423Z,56.51
2022-08-31T14:45:09.998Z,56.83
2022-08-31T14:47:44.152Z,56.56
2022-08-31T14:50:16.694Z,57.53
2022-08-31T14:52:53.021Z,57.28
2022-08-31T14:55:22.814Z,56.90
2022-08-31T14:58:01.546Z,56.64
2022-08-31T15:00:31.851Z,56.66
2022-08-31T15:03:01.142Z,56.54
2022-08-31T15:05:29.121Z,56.79
2022-08-31T15:07:57.151Z,57.69
2022-08-31T15:10:26.138Z,58.19
2022-08-31T15:12:55.713Z,57.00
2022-08-31T15:15:24.150Z,57.76
2022-08-31T15:17:52.022Z,57.71
2022-08-31T15:20:21.477Z,58.45
2022-08-31T15:22:50.338Z,57.10
2022-08-31T15:25:20.714Z,58.00
2022-08-31T15:27:49.377Z,58.03
2022-08-31T15:30:19.941Z,58.06
2022-08-31T15:32:48.688Z,58.67
2022-08-31T15:35:23.484Z,57.73
2022-08-31T15:37:56.392Z,57.79
2022-08-31T15:40:35.488Z,58.21
2022-08-31T15:43:15.413Z,58.45
2022-08-31T15:45:43.262Z,58.50
2022-08-31T15:48:29.273Z,58.86
2022-08-31T15:51:01.381Z,58.72
2022-08-31T15:53:30.678Z,58.05
2022-08-31T15:56:05.593Z,58.26
2022-08-31T15:58:35.022Z,58.70
2022-08-31T16:01:02.601Z,58.75
2022-08-31T16:03:35.283Z,59.35
2022-08-31T16:06:05.378Z,59.54
2022-08-31T16:08:33.190Z,59.79
2022-08-31T16:11:00.942Z,60.07
2022-08-31T16:13:28.757Z,59.95
2022-08-31T16:15:56.322Z,60.26
2022-08-31T16:18:24.759Z,60.81
2022-08-31T16:20:52.183Z,60.57
2022-08-31T16:23:21.015Z,60.90
2022-08-31T16:25:49.507Z,61.27
2022-08-31T16:28:20.795Z,61.93
2022-08-31T16:30:51.756Z,62.29
2022-08-31T16:33:20.571Z,63.20
2022-08-31T16:35:48.542Z,64.11
2022-08-31T16:38:16.126Z,64.87
2022-08-31T16:40:43.866Z,65.37
2022-08-31T16:43:11.823Z,66.01
2022-08-31T16:45:41.455Z,66.41
2022-08-31T16:48:30.033Z,66.76
2022-08-31T16:51:02.043Z,67.57
2022-08-31T16:53:31.668Z,67.35
2022-08-31T16:55:59.890Z,67.74
2022-08-31T16:58:50.696Z,68.26
2022-08-31T17:01:27.980Z,68.70
2022-08-31T17:04:00.732Z,69.17
2022-08-31T17:06:33.154Z,70.12
2022-08-31T17:09:05.652Z,70.68
2022-08-31T17:11:48.505Z,71.43
2022-08-31T17:14:22.646Z,72.36
2022-08-31T17:16:50.748Z,73.06
2022-08-31T17:19:19.870Z,73.10
2022-08-31T17:21:50.526Z,73.01
2022-08-31T17:24:28.362Z,72.85
2022-08-31T17:27:01.302Z,73.13
2022-08-31T17:29:34.365Z,73.43
2022-08-31T17:32:16.642Z,73.69
2022-08-31T17:34:45.411Z,73.68
2022-08-31T17:37:15.376Z,74.40
2022-08-31T17:39:45.028Z,74.08
2022-08-31T17:42:16.383Z,74.22
2022-08-31T17:44:48.051Z,74.22
2022-08-31T17:47:16.574Z,74.87
2022-08-31T17:49:46.778Z,75.21
2022-08-31T17:52:14.798Z,75.47
2022-08-31T17:54:43.283Z,75.79
2022-08-31T17:57:15.311Z,75.90
2022-08-31T17:59:48.943Z,75.74
2022-08-31T18:02:21.533Z,76.05
2022-08-31T18:04:49.255Z,76.11
2022-08-31T18:07:17.479Z,76.10
2022-08-31T18:09:46.822Z,75.98
2022-08-31T18:12:18.068Z,76.00
2022-08-31T18:14:45.581Z,75.82
2022-08-31T18:17:16.159Z,76.19
2022-08-31T18:19:45.234Z,76.65
2022-08-31T18:22:18.125Z,76.66
2022-08-31T18:24:45.828Z,76.87
2022-08-31T18:27:17.365Z,76.88
2022-08-31T18:29:45.572Z,76.72
2022-08-31T18:32:13.457Z,76.81
2022-08-31T18:34:47.366Z,76.96
2022-08-31T18:37:20.975Z,77.17
2022-08-31T18:40:08.464Z,76.96
2022-08-31T18:42:56.866Z,77.10
2022-08-31T18:45:28.062Z,77.27
2022-08-31T18:48:32.055Z,77.37
2022-08-31T18:50:49.944Z,77.86
2022-08-31T18:53:27.801Z,78.11
2022-08-31T18:56:11.004Z,78.63
2022-08-31T18:58:40.071Z,78.65
2022-08-31T19:01:11.304Z,79.07
2022-08-31T19:03:40.961Z,79.49
2022-08-31T19:06:15.622Z,79.97
2022-08-31T19:08:43.776Z,80.31
2022-08-31T19:11:13.285Z,80.31
2022-08-31T19:13:41.636Z,80.38
2022-08-31T19:16:18.642Z,80.57
2022-08-31T19:18:48.305Z,80.57
2022-08-31T19:21:26.792Z,80.44
2022-08-31T19:23:57.139Z,80.56
2022-08-31T19:26:38.607Z,80.44
2022-08-31T19:29:14.041Z,80.71
2022-08-31T19:31:49.250Z,80.92
2022-08-31T19:34:25.372Z,80.95
2022-08-31T19:36:55.458Z,81.27
2022-08-31T19:39:28.669Z,81.29
2022-08-31T19:42:00.301Z,81.36
2022-08-31T19:44:28.193Z,81.40
2022-08-31T19:46:57.541Z,81.44
2022-08-31T19:49:27.823Z,81.88
2022-08-31T19:52:01.006Z,81.85
2022-08-31T19:54:38.993Z,82.09
2022-08-31T19:57:09.688Z,82.23
2022-08-31T19:59:38.100Z,82.36
2022-08-31T20:02:07.282Z,82.51
2022-08-31T20:04:35.574Z,82.58
2022-08-31T20:07:06.391Z,82.75
2022-08-31T20:09:35.268Z,83.05
2022-08-31T20:12:04.756Z,83.00
2022-08-31T20:14:32.347Z,83.40
2022-08-31T20:17:00.421Z,83.63
2022-08-31T20:19:36.180Z,83.59
2022-08-31T20:22:08.057Z,83.95
2022-08-31T20:24:43.685Z,84.43
2022-08-31T20:27:16.436Z,85.15
2022-08-31T20:29:46.967Z,85.14
2022-08-31T20:32:14.527Z,85.74
2022-08-31T20:34:43.546Z,86.19
2022-08-31T20:37:11.087Z,86.32
2022-08-31T20:39:41.974Z,86.33
2022-08-31T20:42:09.631Z,86.21
2022-08-31T20:44:38.098Z,85.88
2022-08-31T20:47:28.928Z,85.67
2022-08-31T20:50:02.280Z,85.64
2022-08-31T20:52:34.791Z,85.58
2022-08-31T20:55:05.410Z,85.56
2022-08-31T20:57:35.874Z,85.54
2022-08-31T21:00:06.591Z,85.45
2022-08-31T21:02:34.945Z,85.53
2022-08-31T21:05:36.677Z,85.49
2022-08-31T21:07:57.531Z,85.73
2022-08-31T21:10:37.832Z,85.93
2022-08-31T21:13:12.407Z,85.91
2022-08-31T21:15:46.085Z,85.82
2022-08-31T21:18:18.992Z,85.76
2022-08-31T21:20:47.655Z,85.62
2022-08-31T21:23:15.436Z,85.51
2022-08-31T21:25:45.714Z,85.38
2022-08-31T21:28:18.034Z,85.15
2022-08-31T21:30:49.572Z,85.04
2022-08-31T21:33:17.936Z,84.84
2022-08-31T21:35:47.653Z,84.77
2022-08-31T21:38:15.211Z,84.80
2022-08-31T21:40:50.398Z,84.85
2022-08-31T21:43:18.379Z,84.95
2022-08-31T21:45:46.095Z,85.14
2022-08-31T21:48:13.751Z,85.14
2022-08-31T21:50:41.406Z,85.22
2022-08-31T21:53:08.860Z,85.24
2022-08-31T21:55:38.797Z,85.35
2022-08-31T21:58:06.326Z,85.44
2022-08-31T22:00:34.968Z,85.68
2022-08-31T22:03:02.764Z,85.64
2022-08-31T22:05:32.987Z,85.71
2022-08-31T22:08:01.579Z,85.76
2022-08-31T22:10:30.481Z,85.69
2022-08-31T22:12:58.441Z,85.55
2022-08-31T22:15:27.117Z,85.35
2022-08-31T22:18:17.912Z,85.25
2022-08-31T22:20:43.039Z,85.08
2022-08-31T22:23:11.512Z,85.47
2022-08-31T22:25:38.971Z,85.17
2022-08-31T22:28:07.378Z,85.14
2022-08-31T22:30:36.318Z,85.18
2022-08-31T22:33:04.593Z,85.34
2022-08-31T22:35:38.841Z,85.38
2022-08-31T22:38:08.633Z,85.42
2022-08-31T22:40:39.592Z,85.53
2022-08-31T22:43:09.393Z,85.84
2022-08-31T22:45:48.714Z,85.85
2022-08-31T22:48:16.556Z,86.09
2022-08-31T22:50:44.086Z,86.18
2022-08-31T22:53:11.703Z,86.27
2022-08-31T22:55:41.218Z,86.55
2022-08-31T22:58:09.417Z,86.53
2022-08-31T23:00:36.939Z,86.50
2022-08-31T23:03:04.874Z,86.58
2022-08-31T23:05:32.221Z,86.71
2022-08-31T23:07:59.648Z,86.83
2022-08-31T23:10:28.315Z,87.03
2022-08-31T23:12:57.169Z,86.97
2022-08-31T23:15:26.101Z,87.03
2022-08-31T23:17:53.736Z,87.01
2022-08-31T23:20:24.346Z,87.13
2022-08-31T23:22:54.979Z,87.07
2022-08-31T23:25:24.648Z,87.02
2022-08-31T23:27:53.369Z,86.81
2022-08-31T23:30:22.588Z,86.66
2022-08-31T23:32:50.698Z,86.54
2022-08-31T23:35:18.714Z,86.36
2022-08-31T23:37:46.927Z,86.30
2022-08-31T23:40:16.005Z,86.31
2022-08-31T23:42:44.570Z,86.50
2022-08-31T23:45:12.616Z,86.55
2022-08-31T23:47:40.507Z,86.63
2022-08-31T23:50:10.083Z,86.59
2022-08-31T23:52:41.653Z,87.08
2022-08-31T23:55:11.244Z,87.15
2022-08-31T23:57:39.836Z,87.13
